BAW315 LFPG-EGLL
Flight info
| Callsign | BAW315 |
|---|---|
| Flight time | 0h 44m |
| Altitude | 24000 |
| Route | OPALE DCT KESAX DCT DIMAL DCT ALESO |
| Aircraft | A319/M-SDE3FGIJ1KRWXY/LB1 |
Departure
| Time | 2026-05-04 21:34 |
|---|---|
| Airport | Charles de Gaulle International Airport (LFPG) |
Arrival
| Time | 2026-05-04 22:18 |
|---|---|
| Airport | London Heathrow Airport (EGLL) |
| Time | Latitude | Longitude | Altitude | Speed | Heading |
|---|---|---|---|---|---|
| 2026-05-04 20:22 | 49.00198 | 2.56900 | 355 ft | 0 kts | 343° |
| 2026-05-04 21:20 | 49.00188 | 2.56905 | 362 ft | 3 kts | 330° |
| 2026-05-04 21:21 | 49.00170 | 2.56926 | 362 ft | 3 kts | 323° |
| 2026-05-04 21:21 | 49.00154 | 2.56943 | 364 ft | 3 kts | 323° |
| 2026-05-04 21:21 | 49.00137 | 2.56967 | 362 ft | 3 kts | 302° |
| 2026-05-04 21:21 | 49.00128 | 2.56998 | 356 ft | 3 kts | 272° |
| 2026-05-04 21:22 | 49.00128 | 2.57012 | 357 ft | 0 kts | 269° |
| 2026-05-04 21:27 | 49.00128 | 2.57004 | 358 ft | 1 kts | 269° |
| 2026-05-04 21:28 | 49.00128 | 2.57002 | 359 ft | 0 kts | 269° |
| 2026-05-04 21:28 | 49.00128 | 2.56999 | 357 ft | 2 kts | 269° |
| 2026-05-04 21:28 | 49.00127 | 2.56947 | 354 ft | 8 kts | 269° |
| 2026-05-04 21:29 | 49.00126 | 2.56856 | 354 ft | 10 kts | 267° |
| 2026-05-04 21:29 | 49.00121 | 2.56738 | 354 ft | 12 kts | 265° |
| 2026-05-04 21:29 | 49.00113 | 2.56618 | 354 ft | 7 kts | 259° |
| 2026-05-04 21:29 | 49.00068 | 2.56570 | 357 ft | 9 kts | 192° |
| 2026-05-04 21:30 | 48.99999 | 2.56575 | 354 ft | 11 kts | 174° |
| 2026-05-04 21:30 | 48.99922 | 2.56551 | 358 ft | 13 kts | 232° |
| 2026-05-04 21:30 | 48.99909 | 2.56409 | 354 ft | 15 kts | 267° |
| 2026-05-04 21:30 | 48.99902 | 2.56242 | 354 ft | 17 kts | 266° |
| 2026-05-04 21:31 | 48.99897 | 2.55839 | 354 ft | 21 kts | 253° |
| 2026-05-04 21:31 | 48.99852 | 2.55779 | 357 ft | 0 kts | 201° |
| 2026-05-04 21:31 | 48.99843 | 2.55778 | 361 ft | 2 kts | 186° |
| 2026-05-04 21:32 | 48.99813 | 2.55777 | 354 ft | 7 kts | 178° |
| 2026-05-04 21:32 | 48.99737 | 2.55797 | 354 ft | 15 kts | 166° |
| 2026-05-04 21:32 | 48.99623 | 2.55836 | 358 ft | 18 kts | 144° |
| 2026-05-04 21:32 | 48.99604 | 2.55936 | 354 ft | 0 kts | 84° |
| 2026-05-04 21:33 | 48.99611 | 2.56034 | 354 ft | 34 kts | 85° |
| 2026-05-04 21:33 | 48.99647 | 2.56719 | 356 ft | 95 kts | 85° |
| 2026-05-04 21:34 | 48.99715 | 2.58026 | 364 ft | 149 kts | 85° |
| 2026-05-04 21:34 | 48.99804 | 2.59689 | 813 ft | 160 kts | 86° |
| 2026-05-04 21:34 | 48.99891 | 2.61358 | 1511 ft | 161 kts | 85° |
| 2026-05-04 21:34 | 48.99986 | 2.63156 | 1978 ft | 179 kts | 85° |
| 2026-05-04 21:35 | 49.00091 | 2.65148 | 2340 ft | 202 kts | 86° |
| 2026-05-04 21:35 | 49.00208 | 2.67399 | 2758 ft | 223 kts | 86° |
| 2026-05-04 21:35 | 49.00338 | 2.69901 | 3233 ft | 250 kts | 86° |
| 2026-05-04 21:35 | 49.00478 | 2.72634 | 4007 ft | 265 kts | 86° |
| 2026-05-04 21:36 | 49.00624 | 2.75460 | 5052 ft | 270 kts | 86° |
| 2026-05-04 21:36 | 49.00773 | 2.78326 | 6103 ft | 273 kts | 86° |
| 2026-05-04 21:36 | 49.00923 | 2.81222 | 7102 ft | 276 kts | 86° |
| 2026-05-04 21:36 | 49.01188 | 2.84150 | 8056 ft | 283 kts | 73° |
| 2026-05-04 21:37 | 49.02180 | 2.86737 | 8972 ft | 290 kts | 47° |
| 2026-05-04 21:37 | 49.03848 | 2.88486 | 9914 ft | 295 kts | 21° |
| 2026-05-04 21:37 | 49.05169 | 2.88989 | 10454 ft | 299 kts | 5° |
| 2026-05-04 21:37 | 49.07937 | 2.88229 | 11029 ft | 323 kts | 333° |
| 2026-05-04 21:38 | 49.09846 | 2.86272 | 11457 ft | 338 kts | 320° |
| 2026-05-04 21:38 | 49.11719 | 2.84050 | 12205 ft | 344 kts | 320° |
| 2026-05-04 21:38 | 49.13617 | 2.81794 | 13037 ft | 347 kts | 320° |
| 2026-05-04 21:38 | 49.14880 | 2.80291 | 13583 ft | 348 kts | 320° |
| 2026-05-04 21:39 | 49.17454 | 2.77220 | 14537 ft | 353 kts | 320° |
| 2026-05-04 21:39 | 49.19401 | 2.74888 | 15188 ft | 358 kts | 320° |
| 2026-05-04 21:39 | 49.20715 | 2.73309 | 15619 ft | 362 kts | 320° |
| 2026-05-04 21:39 | 49.23375 | 2.70105 | 16473 ft | 369 kts | 320° |
| 2026-05-04 21:40 | 49.24711 | 2.68493 | 16897 ft | 372 kts | 320° |
| 2026-05-04 21:40 | 49.26762 | 2.66017 | 17552 ft | 377 kts | 319° |
| 2026-05-04 21:40 | 49.28819 | 2.63537 | 18402 ft | 375 kts | 319° |
| 2026-05-04 21:40 | 49.30874 | 2.61058 | 19050 ft | 378 kts | 319° |
| 2026-05-04 21:41 | 49.32942 | 2.58560 | 19587 ft | 383 kts | 319° |
| 2026-05-04 21:41 | 49.35052 | 2.56011 | 20123 ft | 389 kts | 319° |
| 2026-05-04 21:41 | 49.37192 | 2.53422 | 20651 ft | 395 kts | 319° |
| 2026-05-04 21:41 | 49.39364 | 2.50790 | 21168 ft | 401 kts | 319° |
| 2026-05-04 21:42 | 49.41534 | 2.48152 | 21673 ft | 406 kts | 318° |
| 2026-05-04 21:42 | 49.43760 | 2.45434 | 22175 ft | 412 kts | 318° |
| 2026-05-04 21:42 | 49.46019 | 2.42669 | 22686 ft | 418 kts | 318° |
| 2026-05-04 21:42 | 49.48312 | 2.39869 | 23166 ft | 423 kts | 318° |
| 2026-05-04 21:43 | 49.50634 | 2.37042 | 23630 ft | 428 kts | 318° |
| 2026-05-04 21:43 | 49.52977 | 2.34189 | 23905 ft | 430 kts | 317° |
| 2026-05-04 21:43 | 49.55307 | 2.31352 | 23967 ft | 423 kts | 317° |
| 2026-05-04 21:43 | 49.57599 | 2.28558 | 23975 ft | 419 kts | 317° |
| 2026-05-04 21:44 | 49.59848 | 2.25801 | 23975 ft | 418 kts | 317° |
| 2026-05-04 21:44 | 49.62117 | 2.23008 | 23985 ft | 417 kts | 316° |
| 2026-05-04 21:44 | 49.64378 | 2.20223 | 23974 ft | 416 kts | 316° |
| 2026-05-04 21:44 | 49.66640 | 2.17433 | 23975 ft | 416 kts | 316° |
| 2026-05-04 21:45 | 49.68899 | 2.14650 | 23975 ft | 416 kts | 316° |
| 2026-05-04 21:45 | 49.71159 | 2.11864 | 23977 ft | 416 kts | 316° |
| 2026-05-04 21:45 | 49.73415 | 2.09081 | 23981 ft | 415 kts | 316° |
| 2026-05-04 21:45 | 49.75670 | 2.06294 | 23983 ft | 414 kts | 316° |
| 2026-05-04 21:46 | 49.77919 | 2.03508 | 23984 ft | 414 kts | 316° |
| 2026-05-04 21:46 | 49.80164 | 2.00724 | 23984 ft | 413 kts | 316° |
| 2026-05-04 21:46 | 49.82371 | 1.97987 | 23989 ft | 413 kts | 316° |
| 2026-05-04 21:46 | 49.84615 | 1.95199 | 23987 ft | 413 kts | 316° |
| 2026-05-04 21:47 | 49.86852 | 1.92414 | 23983 ft | 413 kts | 316° |
| 2026-05-04 21:47 | 49.89090 | 1.89622 | 23982 ft | 413 kts | 316° |
| 2026-05-04 21:47 | 49.91326 | 1.86840 | 23984 ft | 413 kts | 316° |
| 2026-05-04 21:47 | 49.93575 | 1.84068 | 23983 ft | 413 kts | 316° |
| 2026-05-04 21:48 | 49.95829 | 1.81303 | 24012 ft | 413 kts | 316° |
| 2026-05-04 21:48 | 49.98057 | 1.78572 | 23977 ft | 403 kts | 316° |
| 2026-05-04 21:48 | 50.00216 | 1.75922 | 23983 ft | 400 kts | 316° |
| 2026-05-04 21:48 | 50.02394 | 1.73236 | 23984 ft | 399 kts | 316° |
| 2026-05-04 21:49 | 50.04565 | 1.70550 | 23985 ft | 399 kts | 316° |
| 2026-05-04 21:49 | 50.06775 | 1.67939 | 23979 ft | 402 kts | 321° |
| 2026-05-04 21:49 | 50.09243 | 1.65828 | 23980 ft | 408 kts | 330° |
| 2026-05-04 21:49 | 50.11817 | 1.63969 | 23981 ft | 408 kts | 330° |
| 2026-05-04 21:50 | 50.14392 | 1.62110 | 23980 ft | 408 kts | 330° |
| 2026-05-04 21:50 | 50.16959 | 1.60249 | 23979 ft | 408 kts | 330° |
| 2026-05-04 21:50 | 50.19532 | 1.58383 | 23989 ft | 407 kts | 330° |
| 2026-05-04 21:50 | 50.22097 | 1.56521 | 24000 ft | 406 kts | 330° |
| 2026-05-04 21:51 | 50.24626 | 1.54684 | 24000 ft | 406 kts | 330° |
| 2026-05-04 21:51 | 50.27181 | 1.52825 | 23999 ft | 405 kts | 330° |
| 2026-05-04 21:51 | 50.29737 | 1.50961 | 23998 ft | 405 kts | 330° |
| 2026-05-04 21:51 | 50.32286 | 1.49093 | 23992 ft | 404 kts | 330° |
| 2026-05-04 21:52 | 50.34827 | 1.47230 | 23994 ft | 404 kts | 330° |
| 2026-05-04 21:52 | 50.37377 | 1.45364 | 23990 ft | 404 kts | 330° |
| 2026-05-04 21:52 | 50.39924 | 1.43500 | 23987 ft | 404 kts | 330° |
| 2026-05-04 21:52 | 50.42468 | 1.41638 | 23992 ft | 404 kts | 330° |
| 2026-05-04 21:53 | 50.45009 | 1.39772 | 23992 ft | 403 kts | 330° |
| 2026-05-04 21:53 | 50.47525 | 1.37838 | 24007 ft | 401 kts | 326° |
| 2026-05-04 21:53 | 50.49773 | 1.35424 | 24004 ft | 395 kts | 316° |
| 2026-05-04 21:53 | 50.51736 | 1.32454 | 24004 ft | 390 kts | 308° |
| 2026-05-04 21:54 | 50.53573 | 1.29318 | 23999 ft | 390 kts | 308° |
| 2026-05-04 21:54 | 50.55414 | 1.26192 | 23999 ft | 390 kts | 308° |
| 2026-05-04 21:54 | 50.57256 | 1.23071 | 23997 ft | 390 kts | 308° |
| 2026-05-04 21:54 | 50.59123 | 1.19970 | 23996 ft | 390 kts | 309° |
| 2026-05-04 21:55 | 50.61033 | 1.16926 | 23992 ft | 391 kts | 310° |
| 2026-05-04 21:55 | 50.62962 | 1.13913 | 23991 ft | 391 kts | 311° |
| 2026-05-04 21:55 | 50.64898 | 1.10905 | 24004 ft | 391 kts | 310° |
| 2026-05-04 21:55 | 50.66804 | 1.07939 | 24003 ft | 390 kts | 310° |
| 2026-05-04 21:56 | 50.68724 | 1.04928 | 24004 ft | 389 kts | 310° |
| 2026-05-04 21:56 | 50.70634 | 1.01907 | 24001 ft | 389 kts | 310° |
| 2026-05-04 21:56 | 50.72537 | 0.98879 | 23998 ft | 388 kts | 310° |
| 2026-05-04 21:56 | 50.74440 | 0.95853 | 23994 ft | 388 kts | 310° |
| 2026-05-04 21:57 | 50.76365 | 0.92785 | 23996 ft | 396 kts | 310° |
| 2026-05-04 21:57 | 50.78307 | 0.89686 | 23983 ft | 398 kts | 310° |
| 2026-05-04 21:57 | 50.80253 | 0.86576 | 23983 ft | 398 kts | 310° |
| 2026-05-04 21:57 | 50.82200 | 0.83462 | 23981 ft | 398 kts | 310° |
| 2026-05-04 21:58 | 50.84151 | 0.80341 | 23985 ft | 398 kts | 310° |
| 2026-05-04 21:58 | 50.86096 | 0.77231 | 23979 ft | 396 kts | 310° |
| 2026-05-04 21:58 | 50.88006 | 0.74177 | 23762 ft | 387 kts | 309° |
| 2026-05-04 21:58 | 50.89887 | 0.71163 | 23349 ft | 383 kts | 310° |
| 2026-05-04 21:59 | 50.91729 | 0.68210 | 22848 ft | 380 kts | 310° |
| 2026-05-04 21:59 | 50.93600 | 0.65200 | 22310 ft | 377 kts | 310° |
| 2026-05-04 21:59 | 50.95407 | 0.62281 | 21776 ft | 375 kts | 310° |
| 2026-05-04 21:59 | 50.97226 | 0.59338 | 21253 ft | 372 kts | 310° |
| 2026-05-04 22:00 | 50.99032 | 0.56414 | 20689 ft | 370 kts | 310° |
| 2026-05-04 22:00 | 51.00825 | 0.53509 | 20162 ft | 368 kts | 310° |
| 2026-05-04 22:00 | 51.02612 | 0.50612 | 19622 ft | 366 kts | 311° |
| 2026-05-04 22:00 | 51.04384 | 0.47735 | 19094 ft | 364 kts | 311° |
| 2026-05-04 22:01 | 51.06159 | 0.44851 | 18568 ft | 363 kts | 311° |
| 2026-05-04 22:01 | 51.07931 | 0.42009 | 17998 ft | 361 kts | 313° |
| 2026-05-04 22:01 | 51.09728 | 0.39232 | 17438 ft | 359 kts | 314° |
| 2026-05-04 22:01 | 51.11534 | 0.36500 | 16885 ft | 357 kts | 314° |
| 2026-05-04 22:02 | 51.13330 | 0.33800 | 16373 ft | 354 kts | 314° |
| 2026-05-04 22:02 | 51.15088 | 0.31151 | 16180 ft | 341 kts | 314° |
| 2026-05-04 22:02 | 51.16777 | 0.28596 | 16049 ft | 328 kts | 314° |
| 2026-05-04 22:02 | 51.18400 | 0.26125 | 15837 ft | 319 kts | 313° |
| 2026-05-04 22:03 | 51.19972 | 0.23716 | 15496 ft | 316 kts | 313° |
| 2026-05-04 22:03 | 51.21548 | 0.21294 | 15106 ft | 314 kts | 313° |
| 2026-05-04 22:03 | 51.23141 | 0.18849 | 14752 ft | 312 kts | 314° |
| 2026-05-04 22:03 | 51.24698 | 0.16460 | 14390 ft | 310 kts | 314° |
| 2026-05-04 22:04 | 51.26229 | 0.14104 | 14036 ft | 309 kts | 313° |
| 2026-05-04 22:04 | 51.27767 | 0.11725 | 13664 ft | 307 kts | 313° |
| 2026-05-04 22:04 | 51.29293 | 0.09356 | 13299 ft | 304 kts | 313° |
| 2026-05-04 22:04 | 51.30786 | 0.07044 | 13162 ft | 294 kts | 313° |
| 2026-05-04 22:05 | 51.32210 | 0.04764 | 12865 ft | 288 kts | 307° |
| 2026-05-04 22:05 | 51.33116 | 0.01880 | 12063 ft | 297 kts | 282° |
| 2026-05-04 22:05 | 51.33493 | -0.01435 | 11168 ft | 311 kts | 277° |
| 2026-05-04 22:05 | 51.33804 | -0.04895 | 10521 ft | 316 kts | 276° |
| 2026-05-04 22:06 | 51.34100 | -0.08335 | 10257 ft | 306 kts | 276° |
| 2026-05-04 22:06 | 51.34380 | -0.11647 | 10126 ft | 294 kts | 276° |
| 2026-05-04 22:06 | 51.34649 | -0.14832 | 9941 ft | 286 kts | 276° |
| 2026-05-04 22:06 | 51.34912 | -0.17965 | 9605 ft | 283 kts | 276° |
| 2026-05-04 22:07 | 51.35170 | -0.21074 | 9151 ft | 284 kts | 276° |
| 2026-05-04 22:07 | 51.35429 | -0.24238 | 8571 ft | 289 kts | 276° |
| 2026-05-04 22:07 | 51.35686 | -0.27443 | 8016 ft | 292 kts | 276° |
| 2026-05-04 22:07 | 51.35942 | -0.30686 | 7467 ft | 295 kts | 276° |
| 2026-05-04 22:08 | 51.36196 | -0.33946 | 7058 ft | 293 kts | 276° |
| 2026-05-04 22:08 | 51.36438 | -0.37104 | 6962 ft | 279 kts | 276° |
| 2026-05-04 22:08 | 51.36668 | -0.40101 | 6972 ft | 273 kts | 276° |
| 2026-05-04 22:08 | 51.36898 | -0.43101 | 6973 ft | 272 kts | 276° |
| 2026-05-04 22:09 | 51.37127 | -0.46104 | 6970 ft | 271 kts | 276° |
| 2026-05-04 22:09 | 51.37358 | -0.49101 | 6980 ft | 272 kts | 276° |
| 2026-05-04 22:09 | 51.37587 | -0.52094 | 6973 ft | 271 kts | 276° |
| 2026-05-04 22:09 | 51.37817 | -0.55097 | 6937 ft | 270 kts | 276° |
| 2026-05-04 22:10 | 51.38044 | -0.58076 | 6598 ft | 269 kts | 276° |
| 2026-05-04 22:10 | 51.38268 | -0.61041 | 6263 ft | 268 kts | 276° |
| 2026-05-04 22:10 | 51.38489 | -0.64015 | 5777 ft | 271 kts | 276° |
| 2026-05-04 22:10 | 51.38708 | -0.67036 | 5265 ft | 275 kts | 276° |
| 2026-05-04 22:11 | 51.38924 | -0.70116 | 4666 ft | 281 kts | 276° |
| 2026-05-04 22:11 | 51.39136 | -0.73262 | 4084 ft | 285 kts | 276° |
| 2026-05-04 22:11 | 51.39339 | -0.76356 | 3922 ft | 274 kts | 277° |
| 2026-05-04 22:11 | 51.39924 | -0.79129 | 3880 ft | 258 kts | 303° |
| 2026-05-04 22:12 | 51.41215 | -0.81066 | 3544 ft | 256 kts | 332° |
| 2026-05-04 22:12 | 51.42926 | -0.81747 | 3172 ft | 256 kts | 357° |
| 2026-05-04 22:12 | 51.44675 | -0.81737 | 2925 ft | 251 kts | 6° |
| 2026-05-04 22:12 | 51.46229 | -0.80765 | 2915 ft | 235 kts | 38° |
| 2026-05-04 22:13 | 51.47152 | -0.78743 | 2927 ft | 220 kts | 69° |
| 2026-05-04 22:13 | 51.47457 | -0.76436 | 2927 ft | 204 kts | 82° |
| 2026-05-04 22:13 | 51.47578 | -0.74254 | 2951 ft | 188 kts | 87° |
| 2026-05-04 22:13 | 51.47615 | -0.72275 | 2903 ft | 166 kts | 88° |
| 2026-05-04 22:14 | 51.47632 | -0.70513 | 2765 ft | 152 kts | 89° |
| 2026-05-04 22:14 | 51.47644 | -0.68903 | 2597 ft | 139 kts | 89° |
| 2026-05-04 22:14 | 51.47655 | -0.67385 | 2424 ft | 134 kts | 89° |
| 2026-05-04 22:14 | 51.47664 | -0.65900 | 2248 ft | 132 kts | 89° |
| 2026-05-04 22:15 | 51.47673 | -0.64433 | 2077 ft | 131 kts | 89° |
| 2026-05-04 22:15 | 51.47681 | -0.62976 | 1898 ft | 131 kts | 89° |
| 2026-05-04 22:15 | 51.47688 | -0.61520 | 1722 ft | 130 kts | 89° |
| 2026-05-04 22:15 | 51.47696 | -0.60072 | 1540 ft | 130 kts | 89° |
| 2026-05-04 22:16 | 51.47703 | -0.58627 | 1359 ft | 129 kts | 89° |
| 2026-05-04 22:16 | 51.47710 | -0.57182 | 1181 ft | 129 kts | 89° |
| 2026-05-04 22:16 | 51.47717 | -0.55746 | 1004 ft | 129 kts | 89° |
| 2026-05-04 22:16 | 51.47724 | -0.54315 | 826 ft | 128 kts | 89° |
| 2026-05-04 22:17 | 51.47730 | -0.52917 | 662 ft | 127 kts | 89° |
| 2026-05-04 22:17 | 51.47736 | -0.51489 | 486 ft | 126 kts | 89° |
| 2026-05-04 22:17 | 51.47737 | -0.50108 | 331 ft | 125 kts | 89° |
| 2026-05-04 22:17 | 51.47736 | -0.48714 | 159 ft | 124 kts | 89° |
| 2026-05-04 22:18 | 51.47741 | -0.47391 | 86 ft | 108 kts | 90° |
| 2026-05-04 22:18 | 51.47745 | -0.46553 | 90 ft | 58 kts | 89° |
| 2026-05-04 22:18 | 51.47751 | -0.45917 | 85 ft | 58 kts | 88° |
| 2026-05-04 22:18 | 51.47703 | -0.45474 | 86 ft | 32 kts | 163° |
| 2026-05-04 22:19 | 51.47523 | -0.45486 | 91 ft | 21 kts | 219° |
| 2026-05-04 22:19 | 51.47512 | -0.45583 | 88 ft | 0 kts | 265° |
| 2026-05-04 22:20 | 51.47512 | -0.45590 | 87 ft | 2 kts | 265° |
| 2026-05-04 22:20 | 51.47510 | -0.45627 | 87 ft | 4 kts | 265° |
| 2026-05-04 22:20 | 51.47508 | -0.45689 | 89 ft | 7 kts | 270° |
| 2026-05-04 22:20 | 51.47514 | -0.45773 | 87 ft | 9 kts | 278° |
| 2026-05-04 22:21 | 51.47517 | -0.45886 | 87 ft | 11 kts | 271° |
| 2026-05-04 22:21 | 51.47519 | -0.46028 | 87 ft | 14 kts | 271° |
| 2026-05-04 22:21 | 51.47518 | -0.46197 | 87 ft | 17 kts | 269° |
| 2026-05-04 22:21 | 51.47516 | -0.46396 | 87 ft | 19 kts | 269° |
| 2026-05-04 22:22 | 51.47516 | -0.46621 | 87 ft | 21 kts | 270° |
| 2026-05-04 22:22 | 51.47491 | -0.46867 | 87 ft | 24 kts | 272° |
| 2026-05-04 22:22 | 51.47491 | -0.47143 | 87 ft | 26 kts | 270° |
| 2026-05-04 22:22 | 51.47491 | -0.47446 | 87 ft | 28 kts | 268° |
| 2026-05-04 22:23 | 51.47489 | -0.47777 | 87 ft | 31 kts | 269° |
| 2026-05-04 22:23 | 51.47488 | -0.48130 | 87 ft | 30 kts | 270° |
| 2026-05-04 22:23 | 51.47472 | -0.48350 | 88 ft | 15 kts | 224° |
| 2026-05-04 22:23 | 51.47367 | -0.48361 | 87 ft | 17 kts | 180° |
| 2026-05-04 22:24 | 51.47243 | -0.48363 | 87 ft | 19 kts | 180° |
| 2026-05-04 22:24 | 51.47107 | -0.48361 | 87 ft | 16 kts | 180° |
| 2026-05-04 22:24 | 51.47029 | -0.48362 | 87 ft | 12 kts | 180° |
| 2026-05-04 22:24 | 51.46941 | -0.48356 | 87 ft | 14 kts | 177° |
| 2026-05-04 22:25 | 51.46872 | -0.48455 | 88 ft | 16 kts | 265° |
| 2026-05-04 22:25 | 51.46877 | -0.48649 | 87 ft | 16 kts | 271° |
| 2026-05-04 22:25 | 51.46877 | -0.48670 | 87 ft | 0 kts | 271° |
| 2026-05-04 22:25 | 51.46878 | -0.48694 | 87 ft | 4 kts | 278° |
| 2026-05-04 22:26 | 51.46893 | -0.48718 | 90 ft | 2 kts | 338° |
| 2026-05-04 22:26 | 51.46917 | -0.48718 | 90 ft | 4 kts | 3° |
| 2026-05-04 22:26 | 51.46925 | -0.48718 | 87 ft | 0 kts | 1° |